Terminal Aerodrome Forecast
Issued by NWS Dallas/Fort Worth, TX

Home | Current Version | Previous Version | Text Only | Print | Product List | Glossary On
Versions: 1 2 3 4 5 6 7 8 9 10 11 12 13 14 15 16 17 18 19 20 21 22 23 24 25 26
216
FTUS44 KFWD 222320
TAFDFW
TAF
KDFW 222320Z 2300/2406 15013KT P6SM SCT040
     FM231000 16011KT P6SM BKN012
     FM231600 17019G29KT P6SM SCT030=

USA.gov is the U.S. government's official web portal to all federal, state and local government web resources and services.